Milford, Delaware
Current Conditions -  °F | °C
As of 9:13 AM on Wednesday 26 Nov 2014 (Local Time) from KDOV Reporting Station
Light Rain Light Rain  
Wind Chill: 34°   Ceiling: 700
Heat Index: 41°   Visibility: 3mi
Dew Point: 41°   Wind: 13mph
Humidity: 100%   Direction: 360°N
Pressure: 30.07"   Gusts: NA
Location:  38.93°N, 75.43°W
Report Text: KDOV 261413Z AUTO 36011KT 3SM -RA BR OVC007 05/05 A3007 RMK AO2 PRESRR
Loading
Personal Weather Stations






























Interactive Weather Map New forecast layout! Learn more

10-Day Weather Forecast

Advertisements
Track Severe Weather on mobile